Time;durP1;ratioP1;P1;durP2;ratioP2;P2;SDS_P1;SDS_P2;PMS_P1;PMS_P2;Temp;Humidity;BMP_temperature;BMP_pressure;BME280_temperature;BME280_humidity;BME280_pressure;Samples;Min_cycle;Max_cycle;Signal;HPM_P1;HPM_P2
2022/07/18 00:00:47;;;;;;;7.15;3.30;;;15.40;99.90;;;;;;5040383;28;20034;-79
2022/07/18 00:03:13;;;;;;;5.07;3.00;;;15.40;99.90;;;;;;5054964;28;20025;-79
2022/07/18 00:05:38;;;;;;;4.75;3.60;;;15.40;99.90;;;;;;5040256;28;20044;-79
2022/07/18 00:08:04;;;;;;;6.30;3.25;;;15.30;99.90;;;;;;5054355;28;20532;-79
2022/07/18 00:10:30;;;;;;;4.75;3.17;;;15.30;99.90;;;;;;5036533;28;20048;-79
2022/07/18 00:12:55;;;;;;;6.35;3.53;;;15.20;99.90;;;;;;5054510;28;20127;-79
2022/07/18 00:15:21;;;;;;;6.00;3.22;;;15.20;99.90;;;;;;5054043;28;20032;-78
2022/07/18 00:17:49;;;;;;;4.75;3.00;;;15.20;99.90;;;;;;5054582;28;20450;-78
2022/07/18 00:20:14;;;;;;;3.60;3.00;;;15.10;99.90;;;;;;5054334;28;20086;-79
2022/07/18 00:22:40;;;;;;;3.92;3.03;;;15.10;99.90;;;;;;5053983;28;20032;-78
2022/07/18 00:25:06;;;;;;;4.90;3.42;;;15.00;99.90;;;;;;5054139;28;20029;-78
2022/07/18 00:27:32;;;;;;;8.15;3.30;;;15.00;99.90;;;;;;5054025;28;20025;-78
2022/07/18 00:29:57;;;;;;;5.38;3.17;;;15.00;99.90;;;;;;5040196;28;20447;-78
2022/07/18 00:32:23;;;;;;;6.10;3.10;;;15.00;99.90;;;;;;5053846;28;20025;-78
2022/07/18 00:34:48;;;;;;;4.15;2.78;;;15.00;99.90;;;;;;5053986;28;20481;-78
2022/07/18 00:37:14;;;;;;;6.55;3.10;;;14.90;99.90;;;;;;5053255;28;20024;-78
2022/07/18 00:39:39;;;;;;;5.38;3.10;;;14.90;99.90;;;;;;5043698;28;20059;-78
2022/07/18 00:42:05;;;;;;;4.90;2.80;;;14.90;99.90;;;;;;5035910;28;20025;-78
2022/07/18 00:44:33;;;;;;;4.53;2.95;;;14.90;99.90;;;;;;5053317;28;20025;-78
2022/07/18 00:47:01;;;;;;;5.15;3.05;;;14.90;99.90;;;;;;5053569;28;20040;-78
2022/07/18 00:49:27;;;;;;;5.07;2.88;;;14.90;99.90;;;;;;5053503;28;20108;-78
2022/07/18 00:51:53;;;;;;;5.07;2.75;;;14.90;99.90;;;;;;5053361;28;20037;-78
2022/07/18 00:54:19;;;;;;;4.97;3.65;;;14.90;99.90;;;;;;5032012;28;20025;-78
2022/07/18 00:56:47;;;;;;;5.78;3.42;;;14.80;99.90;;;;;;5033543;28;20025;-78
2022/07/18 00:59:13;;;;;;;4.07;3.00;;;14.80;99.90;;;;;;5050608;28;20032;-78
2022/07/18 01:01:42;;;;;;;4.15;3.05;;;14.80;99.90;;;;;;5053864;28;20078;-78
2022/07/18 01:04:15;;;;;;;4.18;2.90;;;14.80;99.90;;;;;;5043756;28;20025;-77
2022/07/18 01:06:41;;;;;;;6.78;3.53;;;14.70;99.90;;;;;;5035521;28;20424;-78
2022/07/18 01:09:07;;;;;;;5.03;3.00;;;14.70;99.90;;;;;;5052927;28;20029;-78
2022/07/18 01:11:34;;;;;;;5.03;3.05;;;14.60;99.90;;;;;;5053105;28;20549;-78
2022/07/18 01:14:03;;;;;;;4.43;2.97;;;14.60;99.90;;;;;;5053482;28;20104;-78
2022/07/18 01:16:29;;;;;;;4.30;3.17;;;14.60;99.90;;;;;;5053420;28;20017;-78
2022/07/18 01:18:55;;;;;;;5.07;3.00;;;14.50;99.90;;;;;;5041962;28;20474;-78
2022/07/18 01:21:20;;;;;;;4.38;3.00;;;14.40;99.90;;;;;;5036498;28;20017;-78
2022/07/18 01:23:46;;;;;;;5.90;2.83;;;14.40;99.90;;;;;;5046308;28;20025;-78
2022/07/18 01:26:14;;;;;;;4.45;2.92;;;14.40;99.90;;;;;;5035242;28;20037;-78
2022/07/18 01:28:40;;;;;;;5.65;3.00;;;14.30;99.90;;;;;;5032057;28;20037;-79
2022/07/18 01:31:06;;;;;;;5.63;3.60;;;14.30;99.90;;;;;;5035071;28;20025;-78
2022/07/18 01:33:33;;;;;;;5.63;3.35;;;14.30;99.90;;;;;;5052850;28;20028;-78
2022/07/18 01:36:04;;;;;;;4.75;3.13;;;14.20;99.90;;;;;;5033527;28;20052;-78
2022/07/18 01:38:31;;;;;;;5.40;3.00;;;14.10;99.90;;;;;;5047826;28;20029;-78
2022/07/18 01:40:57;;;;;;;4.43;2.75;;;14.10;99.90;;;;;;5035062;28;20082;-78
2022/07/18 01:43:24;;;;;;;5.15;3.38;;;14.10;99.90;;;;;;5040184;28;20060;-78
2022/07/18 01:45:50;;;;;;;4.80;3.22;;;14.00;99.90;;;;;;5052009;28;20036;-78
2022/07/18 01:48:15;;;;;;;7.75;3.78;;;14.00;99.90;;;;;;5035129;28;20025;-78
2022/07/18 01:50:41;;;;;;;5.88;3.45;;;13.90;99.90;;;;;;5053247;28;20021;-78
2022/07/18 01:53:07;;;;;;;7.63;3.35;;;13.90;99.90;;;;;;5044003;28;20478;-78
2022/07/18 01:55:33;;;;;;;3.75;3.35;;;13.80;99.90;;;;;;5020839;28;20523;-78
2022/07/18 01:57:58;;;;;;;7.07;3.42;;;13.90;99.90;;;;;;5039046;28;20078;-78
2022/07/18 02:00:24;;;;;;;4.60;3.63;;;13.80;99.90;;;;;;5043974;28;20032;-78
2022/07/18 02:02:49;;;;;;;5.18;3.42;;;13.80;99.90;;;;;;5037869;28;20071;-78
2022/07/18 02:05:15;;;;;;;4.65;3.40;;;13.80;99.90;;;;;;5046063;28;20109;-78
2022/07/18 02:07:42;;;;;;;4.22;3.33;;;13.80;99.90;;;;;;5036703;28;20037;-78
2022/07/18 02:10:10;;;;;;;6.30;3.20;;;13.70;99.90;;;;;;5037309;28;20316;-78
2022/07/18 02:12:37;;;;;;;5.05;3.30;;;13.70;99.90;;;;;;5051776;28;20037;-78
2022/07/18 02:15:04;;;;;;;4.93;3.38;;;13.70;99.90;;;;;;5056801;28;20104;-78
2022/07/18 02:17:30;;;;;;;3.30;3.00;;;13.70;99.90;;;;;;5042891;28;20021;-78
2022/07/18 02:19:56;;;;;;;3.83;3.13;;;13.60;99.90;;;;;;5036963;28;20083;-78
2022/07/18 02:22:22;;;;;;;5.93;3.25;;;13.60;99.90;;;;;;5055089;28;20025;-78
2022/07/18 02:24:48;;;;;;;5.47;3.40;;;13.60;99.90;;;;;;5050539;28;20068;-78
2022/07/18 02:27:14;;;;;;;7.43;3.28;;;13.60;99.90;;;;;;5048372;28;20412;-78
2022/07/18 02:29:40;;;;;;;7.57;3.58;;;13.50;99.90;;;;;;5056152;28;20079;-77
2022/07/18 02:32:06;;;;;;;4.85;3.35;;;13.50;99.90;;;;;;5056529;28;20392;-77
2022/07/18 02:34:32;;;;;;;6.38;3.47;;;13.50;99.90;;;;;;5038577;28;20025;-77
2022/07/18 02:36:57;;;;;;;3.88;3.45;;;13.40;99.90;;;;;;5056474;28;20092;-77
2022/07/18 02:39:23;;;;;;;5.00;3.33;;;13.40;99.90;;;;;;5056246;28;20025;-77
2022/07/18 02:41:48;;;;;;;6.05;3.15;;;13.40;99.90;;;;;;5047618;28;20104;-77
2022/07/18 02:44:14;;;;;;;4.75;3.60;;;13.30;99.90;;;;;;5051225;28;20032;-77
2022/07/18 02:46:40;;;;;;;3.85;3.45;;;13.30;99.90;;;;;;5056347;28;20051;-77
2022/07/18 02:49:06;;;;;;;5.95;3.83;;;13.30;99.90;;;;;;5055859;28;20027;-77
2022/07/18 02:51:31;;;;;;;6.40;3.83;;;13.30;99.90;;;;;;5051155;28;20092;-77
2022/07/18 02:53:57;;;;;;;6.60;3.95;;;13.30;99.90;;;;;;5036205;28;20100;-77
2022/07/18 02:56:22;;;;;;;8.07;4.10;;;13.30;99.90;;;;;;5036096;28;20026;-77
2022/07/18 02:58:48;;;;;;;6.72;3.70;;;13.20;99.90;;;;;;5051684;28;20033;-78
2022/07/18 03:01:13;;;;;;;4.70;3.40;;;13.20;99.90;;;;;;5055434;28;20032;-77
2022/07/18 03:03:39;;;;;;;7.40;3.40;;;13.20;99.90;;;;;;5036074;28;20033;-77
2022/07/18 03:06:05;;;;;;;7.60;3.30;;;13.20;99.90;;;;;;5036323;28;20029;-77
2022/07/18 03:08:30;;;;;;;5.55;4.32;;;13.20;99.90;;;;;;5030920;28;20478;-77
2022/07/18 03:10:56;;;;;;;7.05;3.63;;;13.20;99.90;;;;;;5055379;28;20082;-79
2022/07/18 03:13:21;;;;;;;12.43;4.15;;;13.10;99.90;;;;;;5053794;28;20094;-79
2022/07/18 03:15:47;;;;;;;7.28;4.20;;;13.10;99.90;;;;;;5035744;28;20382;-78
2022/07/18 03:18:13;;;;;;;6.13;3.80;;;13.10;99.90;;;;;;5035588;28;20466;-78
2022/07/18 03:20:38;;;;;;;7.80;3.78;;;13.00;99.90;;;;;;5035901;28;20025;-79
2022/07/18 03:23:07;;;;;;;5.25;3.55;;;13.00;99.90;;;;;;5035974;28;20033;-78
2022/07/18 03:25:33;;;;;;;7.22;3.60;;;13.00;99.90;;;;;;5054092;28;20067;-79
2022/07/18 03:27:59;;;;;;;7.57;3.95;;;13.00;99.90;;;;;;5055321;28;20115;-78
2022/07/18 03:30:25;;;;;;;6.68;3.97;;;13.00;99.90;;;;;;5052652;28;20060;-78
2022/07/18 03:32:50;;;;;;;6.00;3.80;;;13.00;99.90;;;;;;5043014;28;20025;-78
2022/07/18 03:35:16;;;;;;;5.80;3.78;;;13.00;99.90;;;;;;5041459;28;20450;-78
2022/07/18 03:37:41;;;;;;;8.50;3.28;;;13.00;99.90;;;;;;5035309;28;20475;-79
2022/07/18 03:40:08;;;;;;;4.70;3.63;;;12.90;99.90;;;;;;5028817;28;20471;-79
2022/07/18 03:42:37;;;;;;;6.05;3.60;;;12.90;99.90;;;;;;5037121;28;20025;-79
2022/07/18 03:45:04;;;;;;;7.10;3.83;;;12.90;99.90;;;;;;5055067;28;20029;-79
2022/07/18 03:47:29;;;;;;;7.03;3.70;;;12.90;99.90;;;;;;5020589;28;20456;-78
2022/07/18 03:49:55;;;;;;;5.70;3.60;;;12.90;99.90;;;;;;5035134;28;20033;-79
2022/07/18 03:52:20;;;;;;;4.72;3.72;;;12.90;99.90;;;;;;5034956;28;20528;-79
2022/07/18 03:54:46;;;;;;;8.40;4.22;;;12.80;99.90;;;;;;5048932;28;20485;-78
2022/07/18 03:57:12;;;;;;;6.03;3.72;;;12.80;99.90;;;;;;5034931;28;20062;-79
2022/07/18 03:59:37;;;;;;;5.40;4.07;;;12.80;99.90;;;;;;5034861;28;20033;-78
2022/07/18 04:02:03;;;;;;;6.60;4.00;;;12.90;99.90;;;;;;5034846;28;20030;-78
2022/07/18 04:04:28;;;;;;;9.60;4.00;;;12.90;99.90;;;;;;5050850;28;20029;-79
2022/07/18 04:06:58;;;;;;;5.40;3.47;;;12.90;99.90;;;;;;5054687;28;20109;-78
2022/07/18 04:09:25;;;;;;;7.00;3.90;;;13.00;99.90;;;;;;5039608;28;20061;-71
2022/07/18 04:11:50;;;;;;;7.63;3.60;;;13.00;99.90;;;;;;5054000;28;20143;-70
2022/07/18 04:14:16;;;;;;;8.38;4.32;;;13.00;99.90;;;;;;5051260;28;20112;-70
2022/07/18 04:16:42;;;;;;;5.60;4.07;;;13.10;99.90;;;;;;5053583;28;20462;-70
2022/07/18 04:19:07;;;;;;;7.85;4.00;;;13.10;99.90;;;;;;5053141;28;20061;-70
2022/07/18 04:21:33;;;;;;;8.02;3.92;;;13.20;99.90;;;;;;5046043;28;20033;-70
2022/07/18 04:23:58;;;;;;;5.60;3.70;;;13.20;99.90;;;;;;5053686;28;20037;-69
2022/07/18 04:26:24;;;;;;;5.43;3.75;;;13.20;99.90;;;;;;5053423;28;20035;-69
2022/07/18 04:28:50;;;;;;;6.45;3.47;;;13.30;99.90;;;;;;5050552;28;20033;-70
2022/07/18 04:31:15;;;;;;;5.85;4.05;;;13.30;99.90;;;;;;5053082;28;20381;-70
2022/07/18 04:33:41;;;;;;;8.27;3.97;;;13.40;99.90;;;;;;5051643;28;20036;-70
2022/07/18 04:36:07;;;;;;;9.60;4.07;;;13.50;99.90;;;;;;5044612;28;20025;-70
2022/07/18 04:38:36;;;;;;;10.07;3.80;;;13.50;99.90;;;;;;5041088;28;20034;-70
2022/07/18 04:41:02;;;;;;;9.85;4.00;;;13.50;99.90;;;;;;5052432;28;20115;-67
2022/07/18 04:43:27;;;;;;;6.85;4.07;;;13.50;99.90;;;;;;5053717;28;20118;-68
2022/07/18 04:45:53;;;;;;;9.13;4.28;;;13.60;99.90;;;;;;5053481;28;20035;-69
2022/07/18 04:48:18;;;;;;;12.60;3.70;;;13.60;99.90;;;;;;5053210;28;20032;-69
2022/07/18 04:50:44;;;;;;;8.65;4.22;;;13.70;99.90;;;;;;5042464;28;20025;-69
2022/07/18 04:53:10;;;;;;;9.32;3.67;;;13.80;99.90;;;;;;5047111;28;20017;-69
2022/07/18 04:55:36;;;;;;;9.50;3.70;;;13.80;99.90;;;;;;5041051;28;20021;-70
2022/07/18 04:58:01;;;;;;;6.03;3.83;;;13.90;99.90;;;;;;5028623;28;20029;-68
2022/07/18 05:00:27;;;;;;;7.70;3.42;;;13.90;99.90;;;;;;5053235;28;20030;-69
2022/07/18 05:02:56;;;;;;;8.85;3.90;;;14.00;99.90;;;;;;5044469;28;20034;-69
2022/07/18 05:05:23;;;;;;;7.97;3.78;;;14.10;99.90;;;;;;5052963;28;20024;-70
2022/07/18 05:07:49;;;;;;;6.63;3.60;;;14.20;99.90;;;;;;5049038;28;20099;-70
2022/07/18 05:10:17;;;;;;;8.52;3.92;;;14.20;99.90;;;;;;5053497;28;20021;-70
2022/07/18 05:12:46;;;;;;;9.27;4.10;;;14.40;99.90;;;;;;5047941;28;20077;-70
2022/07/18 05:15:14;;;;;;;7.88;3.72;;;14.50;99.90;;;;;;5041935;28;20107;-70
2022/07/18 05:17:40;;;;;;;5.18;3.30;;;14.60;99.90;;;;;;5049053;28;20021;-70
2022/07/18 05:20:09;;;;;;;5.40;3.45;;;14.70;99.90;;;;;;5052599;28;20032;-70
2022/07/18 05:22:36;;;;;;;7.25;3.75;;;14.90;99.90;;;;;;5043314;28;20374;-69
2022/07/18 05:25:03;;;;;;;6.63;3.92;;;15.00;99.90;;;;;;5048074;28;20068;-69
2022/07/18 05:27:28;;;;;;;6.57;4.15;;;15.10;99.90;;;;;;5043352;28;20021;-70
2022/07/18 05:29:54;;;;;;;6.78;3.15;;;15.20;99.90;;;;;;5051234;28;20037;-70
2022/07/18 05:32:20;;;;;;;8.10;3.72;;;15.30;99.90;;;;;;5048553;28;20053;-70
2022/07/18 05:34:45;;;;;;;11.85;4.10;;;15.40;99.90;;;;;;5043448;28;20086;-70
2022/07/18 05:37:11;;;;;;;11.07;3.67;;;15.50;99.90;;;;;;5033339;28;20028;-69
2022/07/18 05:39:36;;;;;;;8.77;4.00;;;15.60;99.90;;;;;;5039851;28;20044;-69
2022/07/18 05:42:03;;;;;;;9.38;3.60;;;15.80;99.90;;;;;;5038971;28;20034;-69
2022/07/18 05:44:28;;;;;;;5.90;3.70;;;15.90;99.90;;;;;;5032294;28;20055;-70
2022/07/18 05:46:54;;;;;;;5.05;3.70;;;16.10;99.90;;;;;;5031139;28;20029;-70
2022/07/18 05:49:19;;;;;;;6.22;3.85;;;16.20;99.90;;;;;;5049364;28;20110;-70
2022/07/18 05:51:45;;;;;;;8.27;3.20;;;16.40;99.90;;;;;;5051926;28;20025;-69
2022/07/18 05:54:11;;;;;;;5.03;3.33;;;16.60;99.90;;;;;;5037060;28;20069;-70
2022/07/18 05:56:37;;;;;;;6.50;3.72;;;16.80;99.90;;;;;;5026587;28;20025;-70
2022/07/18 05:59:04;;;;;;;12.20;3.30;;;17.00;99.90;;;;;;5050280;28;20373;-70
2022/07/18 06:01:29;;;;;;;8.93;3.60;;;17.20;99.90;;;;;;5041267;28;20017;-70
2022/07/18 06:03:55;;;;;;;6.78;3.40;;;17.30;99.90;;;;;;5040444;28;20101;-70
2022/07/18 06:06:20;;;;;;;6.70;3.25;;;17.50;99.90;;;;;;5034980;28;20025;-70
2022/07/18 06:08:47;;;;;;;9.05;3.58;;;17.70;99.90;;;;;;5040497;28;20156;-71
2022/07/18 06:11:13;;;;;;;5.25;4.00;;;17.90;99.90;;;;;;5048342;28;20116;-71
2022/07/18 06:13:40;;;;;;;10.15;3.60;;;18.10;99.90;;;;;;5046190;28;20025;-71
2022/07/18 06:16:06;;;;;;;8.60;3.15;;;18.30;99.90;;;;;;5044397;28;20025;-71
2022/07/18 06:18:34;;;;;;;5.82;3.60;;;18.40;99.90;;;;;;5047679;28;20039;-71
2022/07/18 06:21:00;;;;;;;6.93;3.67;;;18.60;99.90;;;;;;5039596;28;20031;-71
2022/07/18 06:23:26;;;;;;;5.38;3.50;;;18.80;99.90;;;;;;5034342;28;20026;-71
2022/07/18 06:25:51;;;;;;;4.80;3.35;;;18.90;99.90;;;;;;5017666;28;20036;-71
2022/07/18 06:28:17;;;;;;;6.07;3.40;;;19.10;99.90;;;;;;5037519;28;20041;-70
2022/07/18 06:30:42;;;;;;;8.02;3.20;;;19.30;99.90;;;;;;5033391;28;20466;-71
2022/07/18 06:33:08;;;;;;;8.23;3.72;;;19.40;99.90;;;;;;5033906;28;20031;-71
2022/07/18 06:35:34;;;;;;;4.85;3.00;;;19.50;99.90;;;;;;5032822;28;20025;-71
2022/07/18 06:38:00;;;;;;;8.05;3.13;;;19.60;99.90;;;;;;5033899;28;20028;-71
2022/07/18 06:40:26;;;;;;;6.53;3.00;;;19.70;99.90;;;;;;5037395;28;20045;-70
2022/07/18 06:42:52;;;;;;;6.03;3.30;;;19.80;99.90;;;;;;5039107;28;20139;-71
2022/07/18 06:45:18;;;;;;;7.40;3.25;;;20.00;99.90;;;;;;5036648;28;20029;-70
2022/07/18 06:47:44;;;;;;;6.82;2.90;;;20.10;99.90;;;;;;5040305;28;20036;-70
2022/07/18 06:50:13;;;;;;;7.85;3.38;;;20.30;99.90;;;;;;5042757;28;20023;-70
2022/07/18 06:52:39;;;;;;;5.85;2.90;;;20.30;99.90;;;;;;5041146;28;20048;-70
2022/07/18 06:55:06;;;;;;;6.10;3.25;;;20.40;99.90;;;;;;5041841;28;20017;-71
2022/07/18 06:57:31;;;;;;;6.32;2.90;;;20.50;99.90;;;;;;5040062;28;20112;-70
2022/07/18 06:59:57;;;;;;;4.30;2.60;;;20.60;99.90;;;;;;5038443;28;20041;-70
2022/07/18 07:02:22;;;;;;;8.75;3.17;;;20.60;99.90;;;;;;5037266;28;20034;-70
2022/07/18 07:04:48;;;;;;;6.82;2.72;;;20.80;99.90;;;;;;5039596;28;20075;-70
2022/07/18 07:07:13;;;;;;;7.93;3.22;;;20.80;99.90;;;;;;5033893;28;20068;-70
2022/07/18 07:09:39;;;;;;;7.15;3.25;;;20.90;99.90;;;;;;5034902;28;20418;-70
2022/07/18 07:12:05;;;;;;;9.60;3.38;;;21.00;99.90;;;;;;5031161;28;20091;-70
2022/07/18 07:14:30;;;;;;;5.82;3.15;;;21.10;99.90;;;;;;5038829;28;20026;-67
2022/07/18 07:16:56;;;;;;;6.93;3.30;;;21.20;99.90;;;;;;5042159;28;20730;-67
2022/07/18 07:19:21;;;;;;;3.92;2.67;;;21.20;99.90;;;;;;5039233;28;20378;-68
2022/07/18 07:21:47;;;;;;;10.05;4.05;;;21.30;99.90;;;;;;5042184;28;20041;-67
2022/07/18 07:24:13;;;;;;;8.20;3.00;;;21.40;99.90;;;;;;5042782;28;20018;-67
2022/07/18 07:26:38;;;;;;;5.07;2.55;;;21.40;99.90;;;;;;5046252;28;20393;-67
2022/07/18 07:29:04;;;;;;;10.20;2.97;;;21.40;99.90;;;;;;5053386;28;20033;-67
2022/07/18 07:31:29;;;;;;;6.50;2.70;;;21.50;99.90;;;;;;5053695;28;20021;-67
2022/07/18 07:33:55;;;;;;;5.88;2.70;;;21.70;99.90;;;;;;5045036;28;20033;-68
2022/07/18 07:36:21;;;;;;;6.97;3.15;;;21.70;99.90;;;;;;5050570;28;20441;-70
2022/07/18 07:38:47;;;;;;;5.13;2.65;;;21.80;99.90;;;;;;5048655;28;20040;-77
2022/07/18 07:41:13;;;;;;;6.53;2.67;;;21.80;99.90;;;;;;5049603;28;20369;-78
2022/07/18 07:43:39;;;;;;;4.72;2.70;;;21.90;99.90;;;;;;5049230;28;20029;-75
2022/07/18 07:46:04;;;;;;;5.45;3.00;;;21.90;99.90;;;;;;5048306;28;20443;-76
2022/07/18 07:48:30;;;;;;;8.00;2.63;;;22.00;99.90;;;;;;5051264;28;20055;-76
2022/07/18 07:50:56;;;;;;;5.15;2.90;;;22.10;99.90;;;;;;5043453;28;20104;-76
2022/07/18 07:53:22;;;;;;;10.38;2.88;;;22.20;99.90;;;;;;5042866;28;20021;-75
2022/07/18 07:55:47;;;;;;;9.15;3.25;;;22.30;99.90;;;;;;5048270;28;20119;-76
2022/07/18 07:58:13;;;;;;;8.98;3.00;;;22.40;99.90;;;;;;5044951;28;20124;-76
2022/07/18 08:00:38;;;;;;;10.50;3.00;;;22.50;99.90;;;;;;5043876;28;20461;-76
2022/07/18 08:03:06;;;;;;;11.05;3.10;;;22.60;99.90;;;;;;5051680;28;20377;-76
2022/07/18 08:05:34;;;;;;;15.07;3.15;;;22.80;99.90;;;;;;5051021;28;20075;-75
2022/07/18 08:08:00;;;;;;;8.00;2.97;;;22.80;99.90;;;;;;5050627;28;20037;-76
2022/07/18 08:10:27;;;;;;;15.02;3.40;;;22.90;99.90;;;;;;5049120;28;20032;-76
2022/07/18 08:12:53;;;;;;;12.02;3.33;;;23.00;99.90;;;;;;5046871;28;20497;-76
2022/07/18 08:15:19;;;;;;;9.90;3.25;;;23.10;99.90;;;;;;5030767;28;20025;-76
2022/07/18 08:17:44;;;;;;;11.48;3.00;;;23.30;99.90;;;;;;5050817;28;20028;-76
2022/07/18 08:20:16;;;;;;;8.68;2.83;;;23.30;99.90;;;;;;5049151;28;20381;-75
2022/07/18 08:22:58;;;;;;;11.40;3.45;;;23.50;99.90;;;;;;5050556;28;20029;-76
2022/07/18 08:25:25;;;;;;;17.23;3.05;;;23.70;99.90;;;;;;5031636;28;20119;-75
2022/07/18 08:27:51;;;;;;;7.90;3.13;;;23.80;99.90;;;;;;5051050;28;20488;-76
2022/07/18 08:30:18;;;;;;;8.63;2.50;;;23.80;99.90;;;;;;5031108;28;20021;-75
2022/07/18 08:32:43;;;;;;;9.30;2.20;;;24.00;99.90;;;;;;5048859;28;20079;-76
2022/07/18 08:35:09;;;;;;;6.88;2.50;;;24.10;99.90;;;;;;5049786;28;20453;-76
2022/07/18 08:37:35;;;;;;;8.00;2.35;;;24.10;99.90;;;;;;5050164;28;20406;-75
2022/07/18 08:40:01;;;;;;;4.97;2.15;;;24.20;99.90;;;;;;5049421;28;20036;-75
2022/07/18 08:42:27;;;;;;;6.60;2.30;;;24.40;97.90;;;;;;5051263;28;20032;-75
2022/07/18 08:44:55;;;;;;;5.47;2.28;;;24.50;94.50;;;;;;5041409;28;20036;-75
2022/07/18 08:47:21;;;;;;;8.80;2.17;;;24.60;95.50;;;;;;5043826;28;20106;-75
2022/07/18 08:49:48;;;;;;;5.90;2.28;;;24.70;95.70;;;;;;5044740;28;20028;-75
2022/07/18 08:52:15;;;;;;;5.88;2.25;;;24.80;93.90;;;;;;5048453;28;20013;-75
2022/07/18 08:54:41;;;;;;;6.78;2.00;;;25.00;91.70;;;;;;5045814;28;20032;-75
2022/07/18 08:57:07;;;;;;;6.47;2.30;;;25.10;91.50;;;;;;5030627;28;20028;-75
2022/07/18 08:59:32;;;;;;;11.30;2.20;;;25.10;92.50;;;;;;5047411;28;20029;-75
2022/07/18 09:01:58;;;;;;;9.60;2.00;;;25.20;91.60;;;;;;5035890;28;20029;-75
2022/07/18 09:04:43;;;;;;;6.22;2.38;;;25.30;90.40;;;;;;5047388;28;20048;-75
2022/07/18 09:07:22;;;;;;;5.68;2.00;;;25.30;88.10;;;;;;5048244;28;20032;-75
2022/07/18 09:09:53;;;;;;;7.82;2.20;;;25.50;87.70;;;;;;5047338;28;20029;-75
2022/07/18 09:12:20;;;;;;;5.10;1.70;;;25.50;86.20;;;;;;5044013;28;20421;-75
2022/07/18 09:14:46;;;;;;;7.05;1.95;;;25.60;86.90;;;;;;5042301;28;20025;-75
2022/07/18 09:17:18;;;;;;;6.85;1.83;;;25.70;82.10;;;;;;5026575;28;20083;-75
2022/07/18 09:20:11;;;;;;;7.85;1.80;;;25.80;83.40;;;;;;5045045;28;20021;-75
2022/07/18 09:22:42;;;;;;;4.78;1.67;;;26.00;80.10;;;;;;5045813;28;20033;-75
2022/07/18 09:25:13;;;;;;;4.28;1.58;;;26.10;77.80;;;;;;5047072;28;20029;-75
2022/07/18 09:27:44;;;;;;;2.67;1.60;;;26.20;73.50;;;;;;5046464;28;20094;-75
2022/07/18 09:30:10;;;;;;;2.70;1.30;;;26.40;70.30;;;;;;5046622;28;20116;-75
2022/07/18 09:32:36;;;;;;;5.63;1.80;;;26.60;71.00;;;;;;5028796;28;20107;-75
2022/07/18 09:35:10;;;;;;;8.77;1.65;;;26.70;68.50;;;;;;5045174;28;20481;-75
2022/07/18 09:37:36;;;;;;;5.65;1.75;;;26.90;66.20;;;;;;5018782;28;20473;-75
2022/07/18 09:40:19;;;;;;;4.65;1.60;;;27.20;67.10;;;;;;5047202;28;20120;-75
2022/07/18 09:42:56;;;;;;;4.03;1.50;;;27.50;64.20;;;;;;5024309;28;20071;-75
2022/07/18 09:45:32;;;;;;;4.82;1.63;;;27.50;66.10;;;;;;5040432;28;20478;-75
2022/07/18 09:48:06;;;;;;;3.58;1.73;;;27.80;66.90;;;;;;5043475;28;20512;-75
2022/07/18 09:50:36;;;;;;;5.82;2.05;;;28.10;65.80;;;;;;5045373;28;20025;-75
2022/07/18 09:53:14;;;;;;;9.10;1.83;;;28.30;64.50;;;;;;5030168;28;20033;-76
2022/07/18 09:55:49;;;;;;;2.92;1.40;;;28.60;63.60;;;;;;5048435;28;20025;-75
2022/07/18 09:58:23;;;;;;;4.00;1.30;;;28.90;64.10;;;;;;5047591;28;20372;-76
2022/07/18 10:00:49;;;;;;;2.70;1.67;;;29.30;59.60;;;;;;5047908;28;20036;-76
2022/07/18 10:03:16;;;;;;;4.63;1.40;;;29.60;59.50;;;;;;5048656;28;20032;-76
2022/07/18 10:05:43;;;;;;;4.80;1.55;;;29.70;59.90;;;;;;5040982;28;20036;-76
2022/07/18 10:08:11;;;;;;;5.03;1.40;;;29.90;57.90;;;;;;5046778;28;20028;-76
2022/07/18 10:10:38;;;;;;;4.55;1.60;;;30.20;59.20;;;;;;5048425;28;20088;-76
2022/07/18 10:13:05;;;;;;;4.78;1.30;;;30.30;59.60;;;;;;5045663;28;20040;-76
2022/07/18 10:15:36;;;;;;;9.88;1.85;;;30.40;58.10;;;;;;5046932;28;20027;-76
2022/07/18 10:18:05;;;;;;;3.60;1.60;;;30.50;56.20;;;;;;5047349;28;20056;-76
2022/07/18 10:20:43;;;;;;;5.53;1.65;;;30.40;56.10;;;;;;5051077;28;20048;-76
2022/07/18 10:23:21;;;;;;;4.43;1.30;;;30.60;56.40;;;;;;5049197;28;20033;-76
2022/07/18 10:26:15;;;;;;;4.40;1.52;;;30.40;56.80;;;;;;5046863;28;20040;-76
2022/07/18 10:28:56;;;;;;;4.35;1.55;;;30.60;54.80;;;;;;5049679;28;20151;-76
2022/07/18 10:31:22;;;;;;;2.85;1.52;;;30.70;55.40;;;;;;5031834;28;20468;-76
2022/07/18 10:33:48;;;;;;;1.92;1.45;;;30.90;53.30;;;;;;5031547;28;20033;-76
2022/07/18 10:36:18;;;;;;;4.18;1.70;;;30.90;55.40;;;;;;5050390;28;20067;-76
2022/07/18 10:39:07;;;;;;;3.65;1.70;;;31.10;55.40;;;;;;5031525;28;20041;-76
2022/07/18 10:41:54;;;;;;;4.32;1.50;;;31.10;53.30;;;;;;5049903;28;20428;-75
2022/07/18 10:44:31;;;;;;;7.03;1.95;;;31.20;54.00;;;;;;5029631;28;20040;-76
2022/07/18 10:47:03;;;;;;;5.60;1.50;;;31.30;54.40;;;;;;5049670;28;20040;-76
2022/07/18 10:49:49;;;;;;;5.88;1.50;;;31.40;53.90;;;;;;5047695;28;20386;-76
2022/07/18 10:52:33;;;;;;;7.10;1.58;;;31.40;54.00;;;;;;5043108;28;20048;-76
2022/07/18 10:55:04;;;;;;;3.65;1.52;;;31.60;51.80;;;;;;5050282;28;20021;-76
2022/07/18 10:57:33;;;;;;;3.03;1.35;;;31.80;52.90;;;;;;5049180;28;20024;-76
2022/07/18 11:00:13;;;;;;;4.50;1.60;;;31.60;52.20;;;;;;5037274;28;20033;-76
2022/07/18 11:02:44;;;;;;;4.18;1.45;;;31.50;51.50;;;;;;5049424;28;20059;-76
2022/07/18 11:05:32;;;;;;;4.25;1.55;;;31.50;53.10;;;;;;5041276;28;20033;-76
2022/07/18 11:08:01;;;;;;;2.10;1.30;;;31.60;51.50;;;;;;5046051;28;20037;-76
2022/07/18 11:10:50;;;;;;;4.07;1.55;;;31.70;53.10;;;;;;5049381;28;20163;-76
2022/07/18 11:13:22;;;;;;;3.63;1.35;;;31.90;53.60;;;;;;5036916;28;20029;-76
2022/07/18 11:15:55;;;;;;;4.95;1.45;;;31.90;51.20;;;;;;5040987;28;20029;-76
2022/07/18 11:18:21;;;;;;;4.75;1.60;;;31.80;53.20;;;;;;5039821;28;20025;-76
2022/07/18 11:20:47;;;;;;;7.55;1.45;;;31.90;53.70;;;;;;5030973;28;20039;-76
2022/07/18 11:23:22;;;;;;;6.20;1.52;;;32.20;54.50;;;;;;5049165;28;20490;-76
2022/07/18 11:25:51;;;;;;;6.53;1.63;;;32.10;54.60;;;;;;5042067;28;20051;-76
2022/07/18 11:28:18;;;;;;;4.07;1.60;;;32.40;53.90;;;;;;5043174;28;20490;-76
2022/07/18 11:30:45;;;;;;;4.05;1.40;;;32.60;52.10;;;;;;5045899;28;20038;-76
2022/07/18 11:33:25;;;;;;;4.72;1.55;;;32.60;50.50;;;;;;5049466;28;20025;-76
2022/07/18 11:35:51;;;;;;;5.97;1.40;;;32.90;51.60;;;;;;5049241;28;20087;-76
2022/07/18 11:38:17;;;;;;;2.42;1.48;;;33.00;51.80;;;;;;5049086;28;20037;-76
2022/07/18 11:40:52;;;;;;;2.78;1.15;;;33.10;51.70;;;;;;5048001;28;20115;-76
2022/07/18 11:43:22;;;;;;;4.50;1.48;;;33.20;49.80;;;;;;5042862;28;20036;-76
2022/07/18 11:45:48;;;;;;;6.15;1.95;;;33.30;49.00;;;;;;5043630;28;20032;-76
2022/07/18 11:48:22;;;;;;;4.22;1.30;;;33.20;50.60;;;;;;5044092;28;20087;-76
2022/07/18 11:50:48;;;;;;;3.72;1.50;;;33.00;50.10;;;;;;5038243;28;20061;-76
2022/07/18 11:53:14;;;;;;;3.00;1.55;;;33.20;49.20;;;;;;5048749;28;20029;-76
2022/07/18 11:55:40;;;;;;;5.13;1.42;;;33.30;51.00;;;;;;5048374;28;20101;-76
2022/07/18 11:58:10;;;;;;;4.03;1.40;;;33.30;50.20;;;;;;5048572;28;20112;-76
2022/07/18 12:00:37;;;;;;;4.90;1.55;;;33.30;49.40;;;;;;5047462;28;20680;-76
2022/07/18 12:03:03;;;;;;;2.55;1.30;;;33.20;50.20;;;;;;5046656;28;20069;-76
2022/07/18 12:05:40;;;;;;;3.30;1.40;;;33.20;50.10;;;;;;5030465;28;20736;-76
2022/07/18 12:08:28;;;;;;;5.20;1.50;;;33.20;50.20;;;;;;5030248;28;20583;-76
2022/07/18 12:11:17;;;;;;;4.47;1.35;;;33.20;50.40;;;;;;5030481;28;20374;-76
2022/07/18 12:13:59;;;;;;;6.13;1.38;;;33.10;48.80;;;;;;5042230;28;20036;-76
2022/07/18 12:16:34;;;;;;;5.80;1.58;;;33.10;47.70;;;;;;5047424;28;20094;-76
2022/07/18 12:19:08;;;;;;;3.88;1.30;;;33.00;49.60;;;;;;5047807;28;20041;-76
2022/07/18 12:21:43;;;;;;;3.97;1.60;;;33.00;49.70;;;;;;5048532;28;20021;-76
2022/07/18 12:24:26;;;;;;;2.53;1.30;;;33.40;48.80;;;;;;5048229;28;20029;-75
2022/07/18 12:27:33;;;;;;;3.70;1.52;;;33.80;49.20;;;;;;5048094;28;20029;-75
2022/07/18 12:30:12;;;;;;;3.67;1.40;;;33.70;48.70;;;;;;5044148;28;20132;-75
2022/07/18 12:32:44;;;;;;;4.03;1.55;;;33.80;47.80;;;;;;5048005;28;20025;-76
2022/07/18 12:35:36;;;;;;;2.72;1.40;;;33.80;48.30;;;;;;5047140;28;20107;-76
2022/07/18 12:38:07;;;;;;;4.28;1.40;;;34.20;48.40;;;;;;5036227;28;20378;-77
2022/07/18 12:40:38;;;;;;;5.95;1.40;;;34.40;49.10;;;;;;5047173;28;20033;-76
2022/07/18 12:43:07;;;;;;;5.00;1.40;;;34.80;47.10;;;;;;5047620;28;20029;-76
2022/07/18 12:45:32;;;;;;;3.17;1.30;;;34.80;45.40;;;;;;5047730;28;20073;-76
2022/07/18 12:47:58;;;;;;;3.28;1.35;;;34.70;48.20;;;;;;5042787;28;20048;-76
2022/07/18 12:50:23;;;;;;;4.00;1.35;;;34.90;48.30;;;;;;5019195;28;20103;-76